Valtellina — ICKF — position and weather

sailwx.info

Track history (hours):
 
Tides and Currents Weather Stations Pressure Air Temp Water Temp Dewpoint Dewpoint Depression Visibility Wind Speed Wind Dir Waves Ship Positions

Valtellina

Last reported at 2015-Jul-02 09:33 UTC. Time now 2015-Jul-03 12:24 UTC.
Position N 34°25' E 013°44'.

Length 184 m; draft 10.5 m.

Type: Ship (hazmat cat A). MMSI: 247243900.

Date/timePositionNaut miles runAvg speedWind from/ knotsBaromVisibWave heightAir tempDewpointWater temp
2015-Jul-02 09:33N 34°25' E 013°44'1312.7
2015-Jul-02 08:33N 34°36' E 013°36'1312.6
2015-Jul-02 07:33N 34°46' E 013°27'1312.7
2015-Jul-02 06:33N 34°57' E 013°19'1312.7
2015-Jul-02 05:33N 35°08' E 013°11'1312.8
2015-Jul-02 04:33N 35°19' E 013°03'1313.0
2015-Jul-02 03:33N 35°29' E 012°53'1313.2
2015-Jul-02 02:33N 35°40' E 012°44'1312.7
2015-Jul-02 01:33N 35°51' E 012°36'3012.8
2015-Jul-01 23:14N 36°15' E 012°14'912.7
2015-Jul-01 22:33N 36°22' E 012°08'1312.6
2015-Jul-01 21:33N 36°32' E 011°59'1312.5
2015-Jul-01 20:32N 36°43' E 011°50'1212.4
2015-Jul-01 19:33N 36°52' E 011°39'1212.3
2015-Jul-01 18:33N 37°02' E 011°31'1212.5
2015-Jul-01 17:33N 37°12' E 011°22'1212.3
2015-Jul-01 16:33N 37°21' E 011°11'1312.9
2015-Jul-01 15:33N 37°27' E 010°57'1313.0
2015-Jul-01 14:33N 37°33' E 010°42'1312.6
2015-Jul-01 13:33N 37°39' E 010°29'1212.4
2015-Jul-01 12:33N 37°45' E 010°15'1212.2
2015-Jul-01 11:33N 37°50' E 010°01'1212.1
2015-Jul-01 10:33N 37°56' E 009°47'1212.0
2015-Jul-01 09:33N 38°02' E 009°34'1212.0
2015-Jul-01 08:33N 38°07' E 009°20'1312.6
2015-Jul-01 07:33N 38°13' E 009°06'1312.9
2015-Jul-01 06:32N 38°19' E 008°51'1313.0
2015-Jul-01 05:33N 38°25' E 008°37'1313.0
2015-Jul-01 04:33N 38°31' E 008°22'1312.6
2015-Jul-01 03:33N 38°37' E 008°08'1212.3
2015-Jul-01 02:33N 38°43' E 007°54'1212.3
2015-Jul-01 01:33N 38°49' E 007°40'1812.1
2015-Jul-01 00:06N 38°57' E 007°20'712.2
2015-Jun-30 23:32N 39°00' E 007°12'1212.2
2015-Jun-30 22:32N 39°06' E 006°59'1212.4
2015-Jun-30 21:33N 39°12' E 006°44'1212.3
2015-Jun-30 20:33N 39°17' E 006°30'1212.1
2015-Jun-30 19:32N 39°23' E 006°16'1212.2
2015-Jun-30 18:33N 39°29' E 006°03'1212.1
2015-Jun-30 17:33N 39°34' E 005°49'1212.1
2015-Jun-30 16:32N 39°40' E 005°35'1312.6
2015-Jun-30 15:29N 39°46' E 005°20'1212.5
2015-Jun-30 14:31N 39°52' E 005°06'1312.8
2015-Jun-30 13:31N 39°58' E 004°51'1313.5
2015-Jun-30 12:32N 40°04' E 004°36'1313.3
2015-Jun-30 11:33N 40°10' E 004°20'1312.5
2015-Jun-30 10:33N 40°14' E 004°05'1312.7
2015-Jun-30 09:33N 40°19' E 003°49'1312.8
2015-Jun-30 08:33N 40°24' E 003°34'1312.8
2015-Jun-30 07:33N 40°28' E 003°18'1212.4
2015-Jun-30 06:33N 40°32' E 003°03'1212.4
2015-Jun-30 05:34N 40°37' E 002°47'1212.4
2015-Jun-30 04:33N 40°41' E 002°32'1312.5
2015-Jun-30 03:33N 40°46' E 002°16'1312.6
2015-Jun-30 02:33N 40°50' E 002°01'1312.6
2015-Jun-30 01:33N 40°54' E 001°45'1312.7
2015-Jun-30 00:33N 40°59' E 001°30'1312.4
2015-Jun-29 23:33N 41°03' E 001°14'3 0.3
2015-Jun-29 13:29N 41°06' E 001°13'0 0.0
2015-Jun-29 12:23N 41°06' E 001°13'0 0.0
2015-Jun-29 07:29N 41°06' E 001°13'0 0.0
2015-Jun-29 06:29N 41°06' E 001°13'0 0.0
2015-Jun-27 16:12N 41°06' E 001°13'2 2.5
2015-Jun-27 15:23N 41°04' E 001°15'2 0.8
2015-Jun-27 13:04N 41°05' E 001°17'0 0.0
2015-Jun-27 11:28N 41°05' E 001°17'0 0.0
2015-Jun-27 10:31N 41°05' E 001°17'0 0.0
2015-Jun-27 09:31N 41°05' E 001°17'0 0.0
2015-Jun-27 08:28N 41°05' E 001°17'0 0.0
2015-Jun-27 07:28N 41°05' E 001°17'0 0.0
2015-Jun-27 06:10N 41°05' E 001°17'0 0.0
2015-Jun-27 04:22N 41°05' E 001°17'0 0.0
2015-Jun-27 03:28N 41°05' E 001°17'0 0.0
2015-Jun-27 02:25N 41°05' E 001°17'0 0.0
2015-Jun-27 01:28N 41°05' E 001°17'0 0.0
2015-Jun-27 00:22N 41°05' E 001°17'0 0.0
2015-Jun-26 21:28N 41°05' E 001°17'0 0.0
2015-Jun-26 20:28N 41°05' E 001°17'0 0.0
2015-Jun-26 19:31N 41°05' E 001°17'0 0.0
2015-Jun-26 16:10N 41°05' E 001°17'0 0.0
2015-Jun-26 15:04N 41°05' E 001°17'0 0.0
2015-Jun-26 14:25N 41°05' E 001°17'0 0.0
2015-Jun-26 13:31N 41°05' E 001°17'0 0.0
2015-Jun-26 12:28N 41°05' E 001°17'7 2.2
2015-Jun-26 09:07N 41°01' E 001°26'4 7.7
2015-Jun-26 08:33N 40°59' E 001°31'0 0.5
2015-Jun-26 07:33N 40°59' E 001°30'0 0.5
2015-Jun-26 06:33N 40°59' E 001°30'0 0.5
2015-Jun-26 05:33N 40°58' E 001°29'1 0.5
2015-Jun-26 04:33N 40°58' E 001°29'0 0.5
2015-Jun-26 03:33N 40°58' E 001°29'1 0.5
2015-Jun-26 02:33N 40°57' E 001°29'1 0.5
2015-Jun-26 01:33N 40°57' E 001°29'0 0.5
2015-Jun-26 00:33N 40°56' E 001°29'1 0.5
2015-Jun-25 23:33N 40°56' E 001°29'0 0.5
2015-Jun-25 22:31N 40°55' E 001°30'0 0.4
2015-Jun-25 21:34N 40°55' E 001°30'0 0.3
2015-Jun-25 20:33N 40°55' E 001°31'0 0.1
2015-Jun-25 19:33N 40°55' E 001°31'1 1.1
2015-Jun-25 18:33N 40°55' E 001°30'1110.3
2015-Jun-25 17:31N 40°49' E 001°41'1 1.1
2015-Jun-25 16:33N 40°48' E 001°41'1 0.6
2015-Jun-25 15:33N 40°48' E 001°40'0 0.5
2015-Jun-25 14:34N 40°49' E 001°40'0 0.5
2015-Jun-25 13:33N 40°49' E 001°40'0 0.5
2015-Jun-25 12:33N 40°49' E 001°39'0 0.5
2015-Jun-25 11:33N 40°50' E 001°39'0 0.3
2015-Jun-25 10:33N 40°50' E 001°38'0 0.5
2015-Jun-25 09:33N 40°49' E 001°38'0 0.4
2015-Jun-25 08:33N 40°49' E 001°38'5 4.9
2015-Jun-25 07:33N 40°44' E 001°36'1 1.1
2015-Jun-25 06:33N 40°43' E 001°37'1 0.5
2015-Jun-25 05:33N 40°43' E 001°37'1 0.6
2015-Jun-25 04:34N 40°43' E 001°38'1 0.7
2015-Jun-25 03:33N 40°43' E 001°39'1 1.0
2015-Jun-25 02:34N 40°43' E 001°40'1 0.9
2015-Jun-25 01:33N 40°44' E 001°41'1 1.0
2015-Jun-25 00:33N 40°45' E 001°42'1 1.0
2015-Jun-24 23:33N 40°45' E 001°42'1 0.8
2015-Jun-24 22:34N 40°46' E 001°42'1 0.7
2015-Jun-24 21:33N 40°47' E 001°42'1 1.1
2015-Jun-24 20:26N 40°48' E 001°41'6 6.7
2015-Jun-24 19:33N 40°51' E 001°34'3 3.2
2015-Jun-24 18:32N 40°54' E 001°32'1 0.5
2015-Jun-24 17:26N 40°53' E 001°31'1 0.7
2015-Jun-24 16:14N 40°53' E 001°31'0 0.7
2015-Jun-24 15:33N 40°53' E 001°31'7 6.7
2015-Jun-24 14:33N 40°59' E 001°27'1 0.9
2015-Jun-24 13:33N 40°58' E 001°26'1 0.8
2015-Jun-24 12:23N 40°57' E 001°26'1 0.7
2015-Jun-24 11:25N 40°56' E 001°27'1 0.4
2015-Jun-24 09:26N 40°56' E 001°27'0 0.1
2015-Jun-24 08:33N 40°56' E 001°27'1 0.6
2015-Jun-24 07:28N 40°56' E 001°28'7 7.8
2015-Jun-24 06:33N 40°57' E 001°37'1312.7
2015-Jun-24 05:33N 41°00' E 001°54'1312.7
2015-Jun-24 04:33N 41°04' E 002°10'1312.7
2015-Jun-24 03:33N 41°07' E 002°26'1312.7
2015-Jun-24 02:33N 41°10' E 002°42'1312.8
2015-Jun-24 01:33N 41°14' E 002°59'1312.5
2015-Jun-24 00:33N 41°17' E 003°15'1311.7
2015-Jun-23 23:26N 41°23' E 003°30'1112.5
2015-Jun-23 22:31N 41°33' E 003°39'125 4.6
2015-Jun-22 19:33N 43°25' E 004°53'0 0.0
2015-Jun-22 18:33N 43°25' E 004°53'0 0.0
2015-Jun-22 17:33N 43°25' E 004°53'0 0.0
2015-Jun-22 16:33N 43°25' E 004°53'0 0.0
2015-Jun-22 15:30N 43°25' E 004°53'0 0.0
2015-Jun-22 14:33N 43°25' E 004°53'0 0.0
2015-Jun-22 13:30N 43°25' E 004°53'0 0.0
2015-Jun-22 12:30N 43°25' E 004°53'0 0.0
2015-Jun-22 11:33N 43°25' E 004°53'0 0.0
2015-Jun-22 10:30N 43°25' E 004°53'  
Track history (hours):
 
Tides and Currents Weather Stations Pressure Air Temp Water Temp Dewpoint Dewpoint Depression Visibility Wind Speed Wind Dir Waves Ship Positions

Valtellina

Last reported at 2015-Jul-02 09:33 UTC. Time now 2015-Jul-03 12:24 UTC.
Position N 34°25' E 013°44'.

Length 184 m; draft 10.5 m.

Type: Ship (hazmat cat A). MMSI: 247243900.

Date/timePositionNaut miles runAvg speedWind from/ knotsBaromVisibWave heightAir tempDewpointWater temp
2015-Jul-02 09:33N 34°25' E 013°44'1312.7
2015-Jul-02 08:33N 34°36' E 013°36'1312.6
2015-Jul-02 07:33N 34°46' E 013°27'1312.7
2015-Jul-02 06:33N 34°57' E 013°19'1312.7
2015-Jul-02 05:33N 35°08' E 013°11'1312.8
2015-Jul-02 04:33N 35°19' E 013°03'1313.0
2015-Jul-02 03:33N 35°29' E 012°53'1313.2
2015-Jul-02 02:33N 35°40' E 012°44'1312.7
2015-Jul-02 01:33N 35°51' E 012°36'3012.8
2015-Jul-01 23:14N 36°15' E 012°14'912.7
2015-Jul-01 22:33N 36°22' E 012°08'1312.6
2015-Jul-01 21:33N 36°32' E 011°59'1312.5
2015-Jul-01 20:32N 36°43' E 011°50'1212.4
2015-Jul-01 19:33N 36°52' E 011°39'1212.3
2015-Jul-01 18:33N 37°02' E 011°31'1212.5
2015-Jul-01 17:33N 37°12' E 011°22'1212.3
2015-Jul-01 16:33N 37°21' E 011°11'1312.9
2015-Jul-01 15:33N 37°27' E 010°57'1313.0
2015-Jul-01 14:33N 37°33' E 010°42'1312.6
2015-Jul-01 13:33N 37°39' E 010°29'1212.4
2015-Jul-01 12:33N 37°45' E 010°15'1212.2
2015-Jul-01 11:33N 37°50' E 010°01'1212.1
2015-Jul-01 10:33N 37°56' E 009°47'1212.0
2015-Jul-01 09:33N 38°02' E 009°34'1212.0
2015-Jul-01 08:33N 38°07' E 009°20'1312.6
2015-Jul-01 07:33N 38°13' E 009°06'1312.9
2015-Jul-01 06:32N 38°19' E 008°51'1313.0
2015-Jul-01 05:33N 38°25' E 008°37'1313.0
2015-Jul-01 04:33N 38°31' E 008°22'1312.6
2015-Jul-01 03:33N 38°37' E 008°08'1212.3
2015-Jul-01 02:33N 38°43' E 007°54'1212.3
2015-Jul-01 01:33N 38°49' E 007°40'1812.1
2015-Jul-01 00:06N 38°57' E 007°20'712.2
2015-Jun-30 23:32N 39°00' E 007°12'1212.2
2015-Jun-30 22:32N 39°06' E 006°59'1212.4
2015-Jun-30 21:33N 39°12' E 006°44'1212.3
2015-Jun-30 20:33N 39°17' E 006°30'1212.1
2015-Jun-30 19:32N 39°23' E 006°16'1212.2
2015-Jun-30 18:33N 39°29' E 006°03'1212.1
2015-Jun-30 17:33N 39°34' E 005°49'1212.1
2015-Jun-30 16:32N 39°40' E 005°35'1312.6
2015-Jun-30 15:29N 39°46' E 005°20'1212.5
2015-Jun-30 14:31N 39°52' E 005°06'1312.8
2015-Jun-30 13:31N 39°58' E 004°51'1313.5
2015-Jun-30 12:32N 40°04' E 004°36'1313.3
2015-Jun-30 11:33N 40°10' E 004°20'1312.5
2015-Jun-30 10:33N 40°14' E 004°05'1312.7
2015-Jun-30 09:33N 40°19' E 003°49'1312.8
2015-Jun-30 08:33N 40°24' E 003°34'1312.8
2015-Jun-30 07:33N 40°28' E 003°18'1212.4
2015-Jun-30 06:33N 40°32' E 003°03'1212.4
2015-Jun-30 05:34N 40°37' E 002°47'1212.4
2015-Jun-30 04:33N 40°41' E 002°32'1312.5
2015-Jun-30 03:33N 40°46' E 002°16'1312.6
2015-Jun-30 02:33N 40°50' E 002°01'1312.6
2015-Jun-30 01:33N 40°54' E 001°45'1312.7
2015-Jun-30 00:33N 40°59' E 001°30'1312.4
2015-Jun-29 23:33N 41°03' E 001°14'3 0.3
2015-Jun-29 13:29N 41°06' E 001°13'0 0.0
2015-Jun-29 12:23N 41°06' E 001°13'0 0.0
2015-Jun-29 07:29N 41°06' E 001°13'0 0.0
2015-Jun-29 06:29N 41°06' E 001°13'0 0.0
2015-Jun-27 16:12N 41°06' E 001°13'2 2.5
2015-Jun-27 15:23N 41°04' E 001°15'2 0.8
2015-Jun-27 13:04N 41°05' E 001°17'0 0.0
2015-Jun-27 11:28N 41°05' E 001°17'0 0.0
2015-Jun-27 10:31N 41°05' E 001°17'0 0.0
2015-Jun-27 09:31N 41°05' E 001°17'0 0.0
2015-Jun-27 08:28N 41°05' E 001°17'0 0.0
2015-Jun-27 07:28N 41°05' E 001°17'0 0.0
2015-Jun-27 06:10N 41°05' E 001°17'0 0.0
2015-Jun-27 04:22N 41°05' E 001°17'0 0.0
2015-Jun-27 03:28N 41°05' E 001°17'0 0.0
2015-Jun-27 02:25N 41°05' E 001°17'0 0.0
2015-Jun-27 01:28N 41°05' E 001°17'0 0.0
2015-Jun-27 00:22N 41°05' E 001°17'0 0.0
2015-Jun-26 21:28N 41°05' E 001°17'0 0.0
2015-Jun-26 20:28N 41°05' E 001°17'0 0.0
2015-Jun-26 19:31N 41°05' E 001°17'0 0.0
2015-Jun-26 16:10N 41°05' E 001°17'0 0.0
2015-Jun-26 15:04N 41°05' E 001°17'0 0.0
2015-Jun-26 14:25N 41°05' E 001°17'0 0.0
2015-Jun-26 13:31N 41°05' E 001°17'0 0.0
2015-Jun-26 12:28N 41°05' E 001°17'7 2.2
2015-Jun-26 09:07N 41°01' E 001°26'4 7.7
2015-Jun-26 08:33N 40°59' E 001°31'0 0.5
2015-Jun-26 07:33N 40°59' E 001°30'0 0.5
2015-Jun-26 06:33N 40°59' E 001°30'0 0.5
2015-Jun-26 05:33N 40°58' E 001°29'1 0.5
2015-Jun-26 04:33N 40°58' E 001°29'0 0.5
2015-Jun-26 03:33N 40°58' E 001°29'1 0.5
2015-Jun-26 02:33N 40°57' E 001°29'1 0.5
2015-Jun-26 01:33N 40°57' E 001°29'0 0.5
2015-Jun-26 00:33N 40°56' E 001°29'1 0.5
2015-Jun-25 23:33N 40°56' E 001°29'0 0.5
2015-Jun-25 22:31N 40°55' E 001°30'0 0.4
2015-Jun-25 21:34N 40°55' E 001°30'0 0.3
2015-Jun-25 20:33N 40°55' E 001°31'0 0.1
2015-Jun-25 19:33N 40°55' E 001°31'1 1.1
2015-Jun-25 18:33N 40°55' E 001°30'1110.3
2015-Jun-25 17:31N 40°49' E 001°41'1 1.1
2015-Jun-25 16:33N 40°48' E 001°41'1 0.6
2015-Jun-25 15:33N 40°48' E 001°40'0 0.5
2015-Jun-25 14:34N 40°49' E 001°40'0 0.5
2015-Jun-25 13:33N 40°49' E 001°40'0 0.5
2015-Jun-25 12:33N 40°49' E 001°39'0 0.5
2015-Jun-25 11:33N 40°50' E 001°39'0 0.3
2015-Jun-25 10:33N 40°50' E 001°38'0 0.5
2015-Jun-25 09:33N 40°49' E 001°38'0 0.4
2015-Jun-25 08:33N 40°49' E 001°38'5 4.9
2015-Jun-25 07:33N 40°44' E 001°36'1 1.1
2015-Jun-25 06:33N 40°43' E 001°37'1 0.5
2015-Jun-25 05:33N 40°43' E 001°37'1 0.6
2015-Jun-25 04:34N 40°43' E 001°38'1 0.7
2015-Jun-25 03:33N 40°43' E 001°39'1 1.0
2015-Jun-25 02:34N 40°43' E 001°40'1 0.9
2015-Jun-25 01:33N 40°44' E 001°41'1 1.0
2015-Jun-25 00:33N 40°45' E 001°42'1 1.0
2015-Jun-24 23:33N 40°45' E 001°42'1 0.8
2015-Jun-24 22:34N 40°46' E 001°42'1 0.7
2015-Jun-24 21:33N 40°47' E 001°42'1 1.1
2015-Jun-24 20:26N 40°48' E 001°41'6 6.7
2015-Jun-24 19:33N 40°51' E 001°34'3 3.2
2015-Jun-24 18:32N 40°54' E 001°32'1 0.5
2015-Jun-24 17:26N 40°53' E 001°31'1 0.7
2015-Jun-24 16:14N 40°53' E 001°31'0 0.7
2015-Jun-24 15:33N 40°53' E 001°31'7 6.7
2015-Jun-24 14:33N 40°59' E 001°27'1 0.9
2015-Jun-24 13:33N 40°58' E 001°26'1 0.8
2015-Jun-24 12:23N 40°57' E 001°26'1 0.7
2015-Jun-24 11:25N 40°56' E 001°27'1 0.4
2015-Jun-24 09:26N 40°56' E 001°27'0 0.1
2015-Jun-24 08:33N 40°56' E 001°27'1 0.6
2015-Jun-24 07:28N 40°56' E 001°28'7 7.8
2015-Jun-24 06:33N 40°57' E 001°37'1312.7
2015-Jun-24 05:33N 41°00' E 001°54'1312.7
2015-Jun-24 04:33N 41°04' E 002°10'1312.7
2015-Jun-24 03:33N 41°07' E 002°26'1312.7
2015-Jun-24 02:33N 41°10' E 002°42'1312.8
2015-Jun-24 01:33N 41°14' E 002°59'1312.5
2015-Jun-24 00:33N 41°17' E 003°15'1311.7
2015-Jun-23 23:26N 41°23' E 003°30'1112.5
2015-Jun-23 22:31N 41°33' E 003°39'125 4.6
2015-Jun-22 19:33N 43°25' E 004°53'0 0.0
2015-Jun-22 18:33N 43°25' E 004°53'0 0.0
2015-Jun-22 17:33N 43°25' E 004°53'0 0.0
2015-Jun-22 16:33N 43°25' E 004°53'0 0.0
2015-Jun-22 15:30N 43°25' E 004°53'0 0.0
2015-Jun-22 14:33N 43°25' E 004°53'0 0.0
2015-Jun-22 13:30N 43°25' E 004°53'0 0.0
2015-Jun-22 12:30N 43°25' E 004°53'0 0.0
2015-Jun-22 11:33N 43°25' E 004°53'0 0.0
2015-Jun-22 10:30N 43°25' E 004°53'  

Dump ship's entire track history